sensor_id;sensor_type;location;lat;lon;timestamp;pressure;altitude;pressure_sealevel;temperature;humidity
38191;BME280;25191;47.510;19.124;2023-07-13T00:14:03;100089.78;;;26.75;53.06
38191;BME280;25191;47.510;19.124;2023-07-13T00:34:03;99994.84;;;26.93;52.04
38191;BME280;25191;47.510;19.124;2023-07-13T00:54:05;99950.50;;;26.94;50.41
38191;BME280;25191;47.510;19.124;2023-07-13T01:14:06;99917.09;;;26.25;52.02
38191;BME280;25191;47.510;19.124;2023-07-13T01:34:07;99924.88;;;26.27;51.19
38191;BME280;25191;47.510;19.124;2023-07-13T01:54:08;99900.25;;;25.83;53.25
38191;BME280;25191;47.510;19.124;2023-07-13T02:14:09;99889.25;;;25.70;53.56
38191;BME280;25191;47.510;19.124;2023-07-13T02:34:09;99885.06;;;25.59;54.46
38191;BME280;25191;47.510;19.124;2023-07-13T02:54:11;99907.13;;;25.33;55.56
38191;BME280;25191;47.510;19.124;2023-07-13T03:14:13;99955.94;;;25.22;57.13
38191;BME280;25191;47.510;19.124;2023-07-13T03:34:14;99939.41;;;25.02;58.45
38191;BME280;25191;47.510;19.124;2023-07-13T03:54:14;99958.09;;;25.01;58.68
38191;BME280;25191;47.510;19.124;2023-07-13T04:14:14;99993.47;;;24.91;59.23
38191;BME280;25191;47.510;19.124;2023-07-13T04:34:15;100034.06;;;24.64;59.31
38191;BME280;25191;47.510;19.124;2023-07-13T04:54:15;100070.53;;;24.70;58.85
38191;BME280;25191;47.510;19.124;2023-07-13T05:14:16;100192.78;;;24.28;60.74
38191;BME280;25191;47.510;19.124;2023-07-13T05:34:16;100246.38;;;25.05;58.21
38191;BME280;25191;47.510;19.124;2023-07-13T05:54:17;100245.47;;;25.42;56.73
38191;BME280;25191;47.510;19.124;2023-07-13T06:14:17;100122.25;;;25.65;55.85
38191;BME280;25191;47.510;19.124;2023-07-13T06:34:17;99841.03;;;25.83;55.05
38191;BME280;25191;47.510;19.124;2023-07-13T06:54:18;99872.19;;;25.72;55.88
38191;BME280;25191;47.510;19.124;2023-07-13T07:14:18;99886.81;;;25.42;57.70
38191;BME280;25191;47.510;19.124;2023-07-13T07:34:19;100063.84;;;24.48;59.15
38191;BME280;25191;47.510;19.124;2023-07-13T07:54:19;100089.59;;;24.46;57.53
38191;BME280;25191;47.510;19.124;2023-07-13T08:14:20;100072.38;;;24.42;57.31
38191;BME280;25191;47.510;19.124;2023-07-13T08:34:20;100079.66;;;24.58;57.15
38191;BME280;25191;47.510;19.124;2023-07-13T08:54:22;100086.16;;;24.91;55.91
38191;BME280;25191;47.510;19.124;2023-07-13T09:34:34;100096.25;;;25.68;56.57
38191;BME280;25191;47.510;19.124;2023-07-13T09:54:35;100101.66;;;25.85;53.84
38191;BME280;25191;47.510;19.124;2023-07-13T10:14:35;100107.16;;;26.18;53.37
38191;BME280;25191;47.510;19.124;2023-07-13T10:34:36;100107.28;;;26.51;51.95
38191;BME280;25191;47.510;19.124;2023-07-13T10:54:37;100102.72;;;26.78;49.57
38191;BME280;25191;47.510;19.124;2023-07-13T11:34:59;100081.38;;;27.45;47.14
38191;BME280;25191;47.510;19.124;2023-07-13T11:55:00;100088.47;;;27.78;47.15
38191;BME280;25191;47.510;19.124;2023-07-13T12:15:05;100055.63;;;28.02;44.85
38191;BME280;25191;47.510;19.124;2023-07-13T12:35:15;100067.38;;;28.24;43.49
38191;BME280;25191;47.510;19.124;2023-07-13T12:55:17;100055.66;;;28.42;44.53
38191;BME280;25191;47.510;19.124;2023-07-13T13:15:18;100040.03;;;28.70;42.39
38191;BME280;25191;47.510;19.124;2023-07-13T13:35:19;100024.75;;;28.87;43.77
38191;BME280;25191;47.510;19.124;2023-07-13T13:55:20;100025.16;;;28.99;43.07
38191;BME280;25191;47.510;19.124;2023-07-13T14:15:22;100029.81;;;28.97;42.88
38191;BME280;25191;47.510;19.124;2023-07-13T14:35:23;100038.25;;;28.86;44.20
38191;BME280;25191;47.510;19.124;2023-07-13T14:55:23;100081.66;;;28.71;43.51
38191;BME280;25191;47.510;19.124;2023-07-13T15:15:27;100080.59;;;28.49;42.50
38191;BME280;25191;47.510;19.124;2023-07-13T15:35:28;100092.97;;;28.34;42.35
38191;BME280;25191;47.510;19.124;2023-07-13T15:55:28;100053.75;;;28.19;42.54
38191;BME280;25191;47.510;19.124;2023-07-13T16:15:30;100105.38;;;28.10;42.95
38191;BME280;25191;47.510;19.124;2023-07-13T16:35:36;100113.06;;;27.88;42.66
38191;BME280;25191;47.510;19.124;2023-07-13T16:55:37;100094.13;;;27.75;42.67
38191;BME280;25191;47.510;19.124;2023-07-13T17:15:37;100093.66;;;27.55;43.64
38191;BME280;25191;47.510;19.124;2023-07-13T17:35:38;100087.84;;;27.35;44.57
38191;BME280;25191;47.510;19.124;2023-07-13T17:55:39;100106.31;;;27.44;44.79
38191;BME280;25191;47.510;19.124;2023-07-13T18:15:39;100116.44;;;27.41;41.48
38191;BME280;25191;47.510;19.124;2023-07-13T18:35:41;100143.81;;;27.16;38.53
38191;BME280;25191;47.510;19.124;2023-07-13T18:55:42;100167.56;;;27.02;40.89
38191;BME280;25191;47.510;19.124;2023-07-13T19:15:44;100189.13;;;26.98;38.58
38191;BME280;25191;47.510;19.124;2023-07-13T19:35:51;100209.44;;;26.73;40.51
38191;BME280;25191;47.510;19.124;2023-07-13T19:55:52;100245.84;;;26.20;41.28
38191;BME280;25191;47.510;19.124;2023-07-13T20:15:52;100275.44;;;25.89;42.99
38191;BME280;25191;47.510;19.124;2023-07-13T20:35:53;100261.56;;;25.95;43.80
38191;BME280;25191;47.510;19.124;2023-07-13T20:55:54;100257.34;;;26.29;44.04
38191;BME280;25191;47.510;19.124;2023-07-13T21:15:57;100221.25;;;26.44;45.66
38191;BME280;25191;47.510;19.124;2023-07-13T21:35:57;100218.72;;;26.34;45.94
38191;BME280;25191;47.510;19.124;2023-07-13T21:55:59;100253.78;;;26.02;44.88
38191;BME280;25191;47.510;19.124;2023-07-13T22:15:59;100285.59;;;25.76;46.15
38191;BME280;25191;47.510;19.124;2023-07-13T22:36:00;100286.69;;;25.91;46.63
38191;BME280;25191;47.510;19.124;2023-07-13T22:56:01;100284.56;;;25.95;47.14
38191;BME280;25191;47.510;19.124;2023-07-13T23:16:04;100299.50;;;25.78;48.22
38191;BME280;25191;47.510;19.124;2023-07-13T23:36:12;100304.50;;;25.63;48.66
38191;BME280;25191;47.510;19.124;2023-07-13T23:56:17;100334.66;;;25.34;49.35
